English Harbour East, Canada
Current Conditions -  °F | °C
As of 7:00 AM on Thursday 18 Dec 2014 (Local Time) from LFVP Reporting Station
Drizzle Drizzle  
Wind Chill: 30°   Ceiling: 800
Heat Index: 39°   Visibility: 2.5mi
Dew Point: 39°   Wind: 20mph
Humidity: 100%   Direction: 120°ESE
Pressure: 29.88"   Gusts: NA
Location:  47.65°N, 54.93°W
Report Text: LFVP 181000Z 12017KT 4000 -DZ BKN008 04/04 Q1012 NOSIG
Loading
Personal Weather Stations






























Interactive Weather Map New forecast layout! Learn more

10-Day Weather Forecast

Advertisements
Track Severe Weather on mobile